Time;durP1;ratioP1;P1;durP2;ratioP2;P2;SDS_P1;SDS_P2;PMS_P1;PMS_P2;Temp;Humidity;BMP_temperature;BMP_pressure;BME280_temperature;BME280_humidity;BME280_pressure;Samples;Min_cycle;Max_cycle;Signal;HPM_P1;HPM_P2
2022/12/23 07:27:13;;;;;;;12.13;10.35;;;;;;;2.84;100.00;97292.71;1856567;76;27948;-62
2022/12/23 07:29:41;;;;;;;24.67;18.05;;;;;;;2.98;100.00;97295.16;1846660;77;20904;-62
2022/12/23 07:32:07;;;;;;;74.22;45.25;;;;;;;3.23;100.00;97300.02;1853038;77;21341;-59
2022/12/23 07:34:34;;;;;;;23.80;15.40;;;;;;;3.44;100.00;97305.64;1846309;77;20911;-59
2022/12/23 07:37:01;;;;;;;38.60;29.27;;;;;;;3.65;100.00;97305.14;1847133;77;20990;-61
2022/12/23 07:39:28;;;;;;;17.27;11.75;;;;;;;3.86;100.00;97312.06;1849380;77;20856;-62
2022/12/23 07:41:57;;;;;;;16.15;12.37;;;;;;;4.02;100.00;97306.27;1801056;78;21464;-62
2022/12/23 07:44:25;;;;;;;11.20;8.60;;;;;;;4.19;100.00;97309.98;1781806;80;21237;-61
2022/12/23 07:46:52;;;;;;;5.10;3.92;;;;;;;4.34;100.00;97317.91;1777221;80;20861;-63
2022/12/23 07:49:18;;;;;;;16.75;12.40;;;;;;;4.51;100.00;97304.64;1791365;80;20919;-65
2022/12/23 07:51:45;;;;;;;6.35;5.15;;;;;;;4.70;100.00;97304.88;1790583;80;21675;-66
2022/12/23 07:54:12;;;;;;;4.08;2.90;;;;;;;4.83;100.00;97304.30;1823491;78;20880;-60
2022/12/23 07:56:39;;;;;;;5.58;2.90;;;;;;;4.94;100.00;97308.53;1796145;78;21012;-65
2022/12/23 07:59:05;;;;;;;6.95;4.33;;;;;;;5.04;100.00;97313.78;1802982;78;21520;-63
2022/12/23 08:01:32;;;;;;;13.90;9.18;;;;;;;5.11;100.00;97316.17;1771143;80;21236;-63
2022/12/23 08:03:58;;;;;;;30.00;20.43;;;;;;;5.17;100.00;97329.16;1765632;81;20904;-59
2022/12/23 08:06:25;;;;;;;28.42;19.05;;;;;;;5.19;100.00;97321.70;1765968;81;20943;-60
2022/12/23 08:08:52;;;;;;;32.20;20.10;;;;;;;5.17;100.00;97320.39;1789643;80;21081;-64
2022/12/23 08:11:18;;;;;;;24.10;14.58;;;;;;;5.14;100.00;97327.55;1778922;80;20873;-64
2022/12/23 08:13:47;;;;;;;16.70;11.05;;;;;;;5.13;100.00;97322.80;1764966;81;21066;-59
2022/12/23 08:16:23;;;;;;;15.68;12.00;;;;;;;5.15;100.00;97324.65;1789403;80;20940;-65
2022/12/23 08:19:00;;;;;;;21.15;13.90;;;;;;;5.21;100.00;97332.05;1779709;80;20853;-65
2022/12/23 08:21:26;;;;;;;7.50;5.10;;;;;;;5.29;99.78;97330.97;1780947;79;21814;-56
2022/12/23 08:23:53;;;;;;;6.75;4.75;;;;;;;5.33;97.92;97324.03;1793450;78;21094;-56
2022/12/23 08:26:21;;;;;;;8.03;5.35;;;;;;;5.36;97.45;97323.50;1749860;81;21404;-60
2022/12/23 08:28:49;;;;;;;6.62;4.83;;;;;;;5.41;97.21;97327.47;1740465;82;20986;-58
2022/12/23 08:31:30;;;;;;;7.70;5.35;;;;;;;5.42;96.34;97321.06;1736002;81;20983;-66
2022/12/23 08:33:57;;;;;;;8.80;5.20;;;;;;;5.45;95.91;97321.06;1788441;80;21690;-61
2022/12/23 08:36:27;;;;;;;13.70;8.23;;;;;;;5.49;95.65;97326.08;1807952;78;20888;-63
2022/12/23 08:38:55;;;;;;;15.18;9.33;;;;;;;5.54;95.43;97320.74;1790005;78;20983;-59
2022/12/23 08:41:25;;;;;;;18.98;11.57;;;;;;;5.57;95.28;97324.72;1787038;80;20900;-60
2022/12/23 08:43:52;;;;;;;11.30;8.33;;;;;;;5.58;94.84;97318.34;1743822;82;21484;-61
2022/12/23 08:46:19;;;;;;;11.78;7.47;;;;;;;5.57;94.65;97318.08;1813845;78;21072;-66
2022/12/23 08:48:46;;;;;;;6.80;4.33;;;;;;;5.61;94.47;97316.45;1792542;78;20900;-63
2022/12/23 08:51:15;;;;;;;6.17;4.53;;;;;;;5.64;93.67;97316.71;1789892;78;20986;-67
2022/12/23 08:53:43;;;;;;;9.73;7.40;;;;;;;5.64;93.53;97318.56;1816710;78;20931;-63
2022/12/23 08:56:19;;;;;;;5.15;3.35;;;;;;;5.67;93.50;97314.05;1746584;82;21379;-59
2022/12/23 08:58:49;;;;;;;4.92;4.22;;;;;;;5.70;91.95;97311.61;1789792;78;21300;-63
2022/12/23 09:01:17;;;;;;;3.35;2.87;;;;;;;5.74;92.14;97319.84;1789889;78;21548;-65
2022/12/23 09:03:44;;;;;;;4.05;3.33;;;;;;;5.76;91.53;97308.41;1801122;78;20912;-59
2022/12/23 09:06:21;;;;;;;4.37;3.10;;;;;;;5.79;91.52;97319.82;1742977;80;21043;-61
2022/12/23 09:08:48;;;;;;;4.17;3.15;;;;;;;5.79;91.32;97315.30;1810997;78;20983;-60
2022/12/23 09:11:18;;;;;;;4.55;3.90;;;;;;;5.78;91.13;97318.22;1813212;78;21295;-67
2022/12/23 09:13:45;;;;;;;6.72;4.50;;;;;;;5.79;91.15;97319.82;1792368;78;21514;-67
2022/12/23 09:16:12;;;;;;;21.82;13.53;;;;;;;5.77;90.98;97316.64;1818222;78;20853;-63
2022/12/23 09:18:40;;;;;;;27.58;16.20;;;;;;;5.73;90.93;97316.39;1750030;82;20912;-59
2022/12/23 09:21:17;;;;;;;15.48;11.80;;;;;;;5.71;90.94;97317.73;1819848;78;20963;-58
2022/12/23 09:23:44;;;;;;;23.15;17.98;;;;;;;5.66;90.83;97319.88;1749620;82;21422;-60
2022/12/23 09:26:10;;;;;;;22.60;17.60;;;;;;;5.60;90.95;97316.20;1813010;77;20841;-61
2022/12/23 09:28:38;;;;;;;21.33;15.40;;;;;;;5.58;90.97;97319.67;1782443;78;21026;-60
2022/12/23 09:31:09;;;;;;;20.17;13.83;;;;;;;5.51;91.01;97325.30;1814652;78;21575;-60
2022/12/23 09:33:36;;;;;;;16.00;10.95;;;;;;;5.45;90.93;97319.73;1815664;78;21422;-63
2022/12/23 09:36:03;;;;;;;16.87;11.68;;;;;;;5.38;90.93;97322.69;1820235;78;21072;-64
2022/12/23 09:38:30;;;;;;;11.05;9.30;;;;;;;5.34;91.02;97319.53;1825131;78;20994;-66
2022/12/23 09:41:11;;;;;;;16.55;11.78;;;;;;;5.21;91.06;97322.23;1814093;78;20998;-62
2022/12/23 09:44:02;;;;;;;21.77;13.55;;;;;;;5.18;91.43;97316.13;1809681;78;21391;-65
2022/12/23 09:46:29;;;;;;;15.23;9.80;;;;;;;5.16;91.56;97315.60;1820933;78;21401;-62
2022/12/23 09:49:05;;;;;;;12.65;9.13;;;;;;;5.14;91.76;97315.09;1828555;78;20926;-64
2022/12/23 09:51:33;;;;;;;8.57;6.60;;;;;;;5.12;91.94;97317.75;1791975;78;20933;-58
2022/12/23 09:54:16;;;;;;;7.50;5.80;;;;;;;5.12;92.02;97312.44;1789328;80;20893;-63
2022/12/23 09:57:18;;;;;;;7.65;5.67;;;;;;;5.12;92.26;97316.42;1792503;78;20935;-58
2022/12/23 09:59:59;;;;;;;6.00;4.97;;;;;;;5.15;92.51;97315.36;1816503;78;20898;-60
2022/12/23 10:02:56;;;;;;;6.70;5.08;;;;;;;5.22;92.88;97314.53;1801512;78;22097;-59
2022/12/23 10:05:47;;;;;;;;;;;;;;;5.33;92.84;97320.05;1802409;78;20970;-60
2022/12/23 10:08:34;;;;;;;5.60;4.05;;;;;;;5.46;92.72;97314.13;1812235;78;20369;-64
2022/12/23 10:11:10;;;;;;;4.80;4.10;;;;;;;5.56;92.37;97309.86;1800933;78;20905;-65
2022/12/23 10:13:49;;;;;;;7.03;4.60;;;;;;;5.63;92.27;97307.70;1760960;80;20936;-59
2022/12/23 10:16:19;;;;;;;5.03;4.20;;;;;;;5.72;92.03;97313.48;1791612;78;21123;-62
2022/12/23 10:19:05;;;;;;;4.78;4.28;;;;;;;5.83;92.16;97304.91;1815846;78;21419;-63
2022/12/23 10:21:48;;;;;;;6.12;4.83;;;;;;;5.91;91.77;97304.36;1821607;78;21458;-62
2022/12/23 10:24:26;;;;;;;6.00;4.62;;;;;;;5.98;91.37;97313.59;1794500;78;20939;-66
2022/12/23 10:26:56;;;;;;;4.83;4.20;;;;;;;5.99;90.87;97311.73;1803911;78;21398;-61
2022/12/23 10:29:25;;;;;;;5.67;4.60;;;;;;;5.94;90.58;97318.41;1784285;79;21822;-61
2022/12/23 10:32:26;;;;;;;5.35;4.50;;;;;;;5.90;90.57;97318.17;1789370;79;20864;-66
2022/12/23 10:35:04;;;;;;;6.90;4.87;;;;;;;5.89;90.65;97319.77;1792441;79;21003;-65
2022/12/23 10:37:46;;;;;;;6.95;5.28;;;;;;;5.88;90.74;97319.52;1806820;79;21408;-63
2022/12/23 10:40:30;;;;;;;6.53;5.12;;;;;;;5.88;90.73;97316.86;1795978;79;21002;-64
2022/12/23 10:43:24;;;;;;;5.45;4.90;;;;;;;5.88;90.71;97320.85;1801082;79;21905;-60
2022/12/23 10:46:23;;;;;;;5.83;4.40;;;;;;;5.90;90.70;97308.08;1784197;79;20961;-64
2022/12/23 10:49:14;;;;;;;7.20;4.83;;;;;;;5.87;90.66;97308.62;1801769;79;20880;-66
2022/12/23 10:51:56;;;;;;;6.33;4.55;;;;;;;5.80;90.87;97310.76;1787164;79;20888;-64
2022/12/23 10:54:33;;;;;;;5.17;4.30;;;;;;;5.75;90.94;97298.83;1795290;79;21094;-58
2022/12/23 10:57:00;;;;;;;5.65;4.42;;;;;;;5.70;91.08;97301.55;1797733;79;21148;-59
2022/12/23 10:59:30;;;;;;;4.62;3.98;;;;;;;5.66;91.30;97300.48;1794053;79;20884;-64
2022/12/23 11:02:06;;;;;;;5.10;4.60;;;;;;;5.61;91.50;97296.52;1790023;79;20888;-62
2022/12/23 11:04:36;;;;;;;5.58;4.85;;;;;;;5.56;91.75;97293.92;1809225;79;21280;-59
2022/12/23 11:07:07;;;;;;;6.72;5.37;;;;;;;5.51;92.05;97295.52;1796267;79;21006;-61
2022/12/23 11:09:45;;;;;;;5.28;4.78;;;;;;;5.51;92.23;97290.20;1793832;79;21223;-61
2022/12/23 11:12:12;;;;;;;6.03;4.80;;;;;;;5.52;92.35;97289.15;1786664;79;21022;-58
2022/12/23 11:14:56;;;;;;;5.53;4.58;;;;;;;5.53;92.51;97284.64;1786098;79;21020;-58
2022/12/23 11:17:32;;;;;;;5.62;4.87;;;;;;;5.56;92.51;97288.61;1788290;79;20920;-63
2022/12/23 11:20:16;;;;;;;5.50;4.75;;;;;;;5.59;92.64;97290.70;1800080;78;20920;-57
2022/12/23 11:22:52;;;;;;;5.97;4.92;;;;;;;5.60;92.64;97284.33;1784577;79;21036;-64
2022/12/23 11:25:35;;;;;;;6.10;5.00;;;;;;;5.63;92.66;97279.80;1782415;79;20969;-62
2022/12/23 11:28:12;;;;;;;7.75;5.40;;;;;;;5.62;92.81;97285.64;1805243;77;20876;-60
2022/12/23 11:31:07;;;;;;;5.35;4.85;;;;;;;5.61;92.96;97285.38;1820256;77;20971;-58
2022/12/23 11:33:49;;;;;;;7.15;5.28;;;;;;;5.57;93.20;97285.67;1815340;78;20982;-69
2022/12/23 11:36:26;;;;;;;6.08;5.33;;;;;;;5.54;93.51;97281.70;1823824;77;21165;-60
2022/12/23 11:39:14;;;;;;;6.90;5.55;;;;;;;5.56;93.78;97283.30;1821911;77;20962;-65
2022/12/23 11:41:46;;;;;;;7.10;5.75;;;;;;;5.56;93.90;97280.64;1838022;77;20872;-66
2022/12/23 11:44:27;;;;;;;6.85;5.08;;;;;;;5.59;94.12;97282.73;1828931;77;20935;-60
2022/12/23 11:46:54;;;;;;;6.67;5.67;;;;;;;5.67;94.28;97279.50;1815466;77;21070;-62
2022/12/23 11:49:30;;;;;;;7.30;6.10;;;;;;;5.74;94.19;97282.11;1822251;77;21093;-61
2022/12/23 11:52:10;;;;;;;7.12;5.70;;;;;;;5.80;94.03;97282.86;1844294;77;21474;-60
2022/12/23 11:54:38;;;;;;;6.78;5.62;;;;;;;5.81;93.93;97287.11;1760790;80;20988;-63
2022/12/23 11:57:08;;;;;;;6.47;5.75;;;;;;;5.83;93.83;97300.39;1777851;80;20951;-58
2022/12/23 11:59:39;;;;;;;5.97;5.17;;;;;;;5.84;93.77;97293.22;1844233;77;21045;-59
2022/12/23 12:02:34;;;;;;;7.35;6.12;;;;;;;5.82;93.88;97288.69;1845054;77;21417;-60
2022/12/23 12:05:06;;;;;;;8.20;5.72;;;;;;;5.85;93.98;97294.81;1815741;77;20855;-57
2022/12/23 12:07:34;;;;;;;6.35;5.65;;;;;;;5.87;93.94;97295.33;1815074;77;21004;-64
2022/12/23 12:10:01;;;;;;;6.47;5.78;;;;;;;5.87;93.94;97297.98;1833954;77;21002;-61
2022/12/23 12:12:28;;;;;;;8.38;5.90;;;;;;;5.89;94.02;97294.52;1757120;80;20948;-62
2022/12/23 12:14:57;;;;;;;7.20;5.87;;;;;;;5.89;94.09;97306.47;1778926;79;21116;-64
2022/12/23 12:17:46;;;;;;;6.17;5.58;;;;;;;5.91;94.20;97307.02;1772804;80;21489;-61
2022/12/23 12:20:35;;;;;;;7.47;5.80;;;;;;;5.91;94.29;97307.02;1748676;80;21522;-60
2022/12/23 12:23:08;;;;;;;6.92;5.83;;;;;;;5.89;94.46;97311.79;1754456;80;20944;-63
2022/12/23 12:26:01;;;;;;;6.85;6.15;;;;;;;5.87;94.58;97304.63;1764776;80;21525;-61
2022/12/23 12:28:41;;;;;;;6.42;5.58;;;;;;;5.86;94.68;97307.84;1723866;81;21128;-55
2022/12/23 12:31:39;;;;;;;7.85;6.35;;;;;;;5.89;94.85;97313.12;1781213;80;20943;-58
2022/12/23 12:34:43;;;;;;;6.87;5.97;;;;;;;5.93;94.83;97307.53;1781872;80;21027;-56
2022/12/23 12:37:34;;;;;;;8.18;6.58;;;;;;;5.98;94.74;97313.59;1782412;79;21035;-65
2022/12/23 12:40:21;;;;;;;6.70;6.05;;;;;;;5.94;94.67;97313.89;1715072;83;20984;-63
2022/12/23 12:43:04;;;;;;;9.00;6.78;;;;;;;5.90;94.71;97310.20;1716351;82;21518;-65
2022/12/23 12:45:39;;;;;;;7.80;6.20;;;;;;;5.90;94.70;97316.05;1716535;82;20889;-61
2022/12/23 12:48:32;;;;;;;8.53;7.00;;;;;;;5.87;94.76;97317.39;1734016;82;20939;-60
2022/12/23 12:51:20;;;;;;;8.30;7.00;;;;;;;5.89;94.84;97323.75;1751380;82;20986;-66
2022/12/23 12:54:15;;;;;;;9.03;7.15;;;;;;;5.88;94.80;97322.17;1728253;82;21440;-64
2022/12/23 12:56:52;;;;;;;7.65;6.85;;;;;;;5.89;94.86;97326.41;1813578;79;21258;-62
2022/12/23 12:59:22;;;;;;;8.50;6.92;;;;;;;5.89;94.77;97318.43;1810814;79;21051;-65
2022/12/23 13:02:20;;;;;;;12.05;7.10;;;;;;;5.89;94.74;97314.45;1806603;79;21066;-64
2022/12/23 13:05:17;;;;;;;7.35;6.58;;;;;;;5.88;94.70;97316.86;1807137;79;21051;-59
2022/12/23 13:08:08;;;;;;;8.28;6.50;;;;;;;5.85;94.62;97313.42;1780133;80;21183;-60
